sensor_id;sensor_type;location;lat;lon;timestamp;temperature;humidity
50947;DHT22;36955;47.416;7.716;2022-07-10T00:01:42;17.80;99.90
50947;DHT22;36955;47.416;7.716;2022-07-10T00:04:08;17.80;99.90
50947;DHT22;36955;47.416;7.716;2022-07-10T00:06:34;17.70;99.90
50947;DHT22;36955;47.416;7.716;2022-07-10T00:09:00;17.60;99.90
50947;DHT22;36955;47.416;7.716;2022-07-10T00:11:26;17.60;99.90
50947;DHT22;36955;47.416;7.716;2022-07-10T00:13:52;17.50;99.90
50947;DHT22;36955;47.416;7.716;2022-07-10T00:16:18;17.50;99.90
50947;DHT22;36955;47.416;7.716;2022-07-10T00:18:44;17.40;99.90
50947;DHT22;36955;47.416;7.716;2022-07-10T00:21:10;17.40;99.90
50947;DHT22;36955;47.416;7.716;2022-07-10T00:23:36;17.30;99.90
50947;DHT22;36955;47.416;7.716;2022-07-10T00:26:02;17.30;99.90
50947;DHT22;36955;47.416;7.716;2022-07-10T00:28:28;17.30;99.90
50947;DHT22;36955;47.416;7.716;2022-07-10T00:30:54;17.30;99.90
50947;DHT22;36955;47.416;7.716;2022-07-10T00:33:20;17.30;99.90
50947;DHT22;36955;47.416;7.716;2022-07-10T00:35:46;17.30;99.90
50947;DHT22;36955;47.416;7.716;2022-07-10T00:38:12;17.30;99.90
50947;DHT22;36955;47.416;7.716;2022-07-10T00:40:38;17.40;99.90
50947;DHT22;36955;47.416;7.716;2022-07-10T00:43:08;17.40;99.90
50947;DHT22;36955;47.416;7.716;2022-07-10T00:45:34;17.50;99.90
50947;DHT22;36955;47.416;7.716;2022-07-10T00:48:00;17.50;99.90
50947;DHT22;36955;47.416;7.716;2022-07-10T00:50:26;17.50;99.90
50947;DHT22;36955;47.416;7.716;2022-07-10T00:52:53;17.50;99.90
50947;DHT22;36955;47.416;7.716;2022-07-10T00:55:20;17.50;99.90
50947;DHT22;36955;47.416;7.716;2022-07-10T00:57:47;17.40;99.90
50947;DHT22;36955;47.416;7.716;2022-07-10T01:00:14;17.40;99.90
50947;DHT22;36955;47.416;7.716;2022-07-10T01:02:42;17.40;99.90
50947;DHT22;36955;47.416;7.716;2022-07-10T01:05:09;17.30;99.90
50947;DHT22;36955;47.416;7.716;2022-07-10T01:07:35;17.30;99.90
50947;DHT22;36955;47.416;7.716;2022-07-10T01:10:02;17.20;99.90
50947;DHT22;36955;47.416;7.716;2022-07-10T01:12:28;17.20;99.90
50947;DHT22;36955;47.416;7.716;2022-07-10T01:14:55;17.10;99.90
50947;DHT22;36955;47.416;7.716;2022-07-10T01:17:21;17.10;99.90
50947;DHT22;36955;47.416;7.716;2022-07-10T01:19:47;17.00;99.90
50947;DHT22;36955;47.416;7.716;2022-07-10T01:22:13;17.00;99.90
50947;DHT22;36955;47.416;7.716;2022-07-10T01:24:39;17.00;99.90
50947;DHT22;36955;47.416;7.716;2022-07-10T01:27:05;16.90;99.90
50947;DHT22;36955;47.416;7.716;2022-07-10T01:29:31;16.90;99.90
50947;DHT22;36955;47.416;7.716;2022-07-10T01:31:58;16.80;99.90
50947;DHT22;36955;47.416;7.716;2022-07-10T01:34:24;16.70;99.90
50947;DHT22;36955;47.416;7.716;2022-07-10T01:36:50;16.70;99.90
50947;DHT22;36955;47.416;7.716;2022-07-10T01:39:16;16.60;99.90
50947;DHT22;36955;47.416;7.716;2022-07-10T01:41:42;16.50;99.90
50947;DHT22;36955;47.416;7.716;2022-07-10T01:44:08;16.50;99.90
50947;DHT22;36955;47.416;7.716;2022-07-10T01:46:34;16.40;99.90
50947;DHT22;36955;47.416;7.716;2022-07-10T01:49:00;16.30;99.90
50947;DHT22;36955;47.416;7.716;2022-07-10T01:51:26;16.20;99.90
50947;DHT22;36955;47.416;7.716;2022-07-10T01:53:52;16.20;99.90
50947;DHT22;36955;47.416;7.716;2022-07-10T01:56:18;16.10;99.90
50947;DHT22;36955;47.416;7.716;2022-07-10T01:58:44;16.00;99.90
50947;DHT22;36955;47.416;7.716;2022-07-10T02:01:11;15.90;99.90
50947;DHT22;36955;47.416;7.716;2022-07-10T02:03:38;15.90;99.90
50947;DHT22;36955;47.416;7.716;2022-07-10T02:06:04;15.80;99.90
50947;DHT22;36955;47.416;7.716;2022-07-10T02:08:31;15.80;99.90
50947;DHT22;36955;47.416;7.716;2022-07-10T02:10:57;15.70;99.90
50947;DHT22;36955;47.416;7.716;2022-07-10T02:13:23;15.70;99.90
50947;DHT22;36955;47.416;7.716;2022-07-10T02:15:50;15.60;99.90
50947;DHT22;36955;47.416;7.716;2022-07-10T02:18:16;15.60;99.90
50947;DHT22;36955;47.416;7.716;2022-07-10T02:20:42;15.60;99.90
50947;DHT22;36955;47.416;7.716;2022-07-10T02:23:08;15.60;99.90
50947;DHT22;36955;47.416;7.716;2022-07-10T02:25:34;15.50;99.90
50947;DHT22;36955;47.416;7.716;2022-07-10T02:28:00;15.60;99.90
50947;DHT22;36955;47.416;7.716;2022-07-10T02:30:26;15.50;99.90
50947;DHT22;36955;47.416;7.716;2022-07-10T02:32:52;15.50;99.90
50947;DHT22;36955;47.416;7.716;2022-07-10T02:35:18;15.40;99.90
50947;DHT22;36955;47.416;7.716;2022-07-10T02:37:44;15.40;99.90
50947;DHT22;36955;47.416;7.716;2022-07-10T02:40:10;15.40;99.90
50947;DHT22;36955;47.416;7.716;2022-07-10T02:42:37;15.40;99.90
50947;DHT22;36955;47.416;7.716;2022-07-10T02:45:04;15.30;99.90
50947;DHT22;36955;47.416;7.716;2022-07-10T02:47:30;15.30;99.90
50947;DHT22;36955;47.416;7.716;2022-07-10T02:49:56;15.30;99.90
50947;DHT22;36955;47.416;7.716;2022-07-10T02:52:22;15.30;99.90
50947;DHT22;36955;47.416;7.716;2022-07-10T02:54:48;15.30;99.90
50947;DHT22;36955;47.416;7.716;2022-07-10T02:57:14;15.20;99.90
50947;DHT22;36955;47.416;7.716;2022-07-10T02:59:40;15.20;99.90
50947;DHT22;36955;47.416;7.716;2022-07-10T03:02:06;15.20;99.90
50947;DHT22;36955;47.416;7.716;2022-07-10T03:04:32;15.20;99.90
50947;DHT22;36955;47.416;7.716;2022-07-10T03:06:58;15.20;99.90
50947;DHT22;36955;47.416;7.716;2022-07-10T03:09:24;15.20;99.90
50947;DHT22;36955;47.416;7.716;2022-07-10T03:11:50;15.20;99.90
50947;DHT22;36955;47.416;7.716;2022-07-10T03:14:17;15.20;99.90
50947;DHT22;36955;47.416;7.716;2022-07-10T03:16:43;15.20;99.90
50947;DHT22;36955;47.416;7.716;2022-07-10T03:19:09;15.20;99.90
50947;DHT22;36955;47.416;7.716;2022-07-10T03:21:35;15.20;99.90
50947;DHT22;36955;47.416;7.716;2022-07-10T03:24:01;15.20;99.90
50947;DHT22;36955;47.416;7.716;2022-07-10T03:26:27;15.20;99.90
50947;DHT22;36955;47.416;7.716;2022-07-10T03:28:53;15.10;99.90
50947;DHT22;36955;47.416;7.716;2022-07-10T03:31:19;15.10;99.90
50947;DHT22;36955;47.416;7.716;2022-07-10T03:33:45;15.10;99.90
50947;DHT22;36955;47.416;7.716;2022-07-10T03:36:11;15.10;99.90
50947;DHT22;36955;47.416;7.716;2022-07-10T03:38:37;15.10;99.90
50947;DHT22;36955;47.416;7.716;2022-07-10T03:41:03;15.20;99.90
50947;DHT22;36955;47.416;7.716;2022-07-10T03:43:29;15.10;99.90
50947;DHT22;36955;47.416;7.716;2022-07-10T03:45:57;15.10;99.90
50947;DHT22;36955;47.416;7.716;2022-07-10T03:48:23;15.10;99.90
50947;DHT22;36955;47.416;7.716;2022-07-10T03:50:52;15.10;99.90
50947;DHT22;36955;47.416;7.716;2022-07-10T03:53:19;15.00;99.90
50947;DHT22;36955;47.416;7.716;2022-07-10T03:55:45;15.00;99.90
50947;DHT22;36955;47.416;7.716;2022-07-10T03:58:11;14.90;99.90
50947;DHT22;36955;47.416;7.716;2022-07-10T04:00:37;14.90;99.90
50947;DHT22;36955;47.416;7.716;2022-07-10T04:03:07;14.90;99.90
50947;DHT22;36955;47.416;7.716;2022-07-10T04:05:34;14.80;99.90
50947;DHT22;36955;47.416;7.716;2022-07-10T04:08:02;14.80;99.90
50947;DHT22;36955;47.416;7.716;2022-07-10T04:10:29;14.70;99.90
50947;DHT22;36955;47.416;7.716;2022-07-10T04:12:55;14.80;99.90
50947;DHT22;36955;47.416;7.716;2022-07-10T04:15:22;14.80;99.90
50947;DHT22;36955;47.416;7.716;2022-07-10T04:17:49;14.70;99.90
50947;DHT22;36955;47.416;7.716;2022-07-10T04:20:16;14.80;99.90
50947;DHT22;36955;47.416;7.716;2022-07-10T04:22:42;14.70;99.90
50947;DHT22;36955;47.416;7.716;2022-07-10T04:25:08;14.70;99.90
50947;DHT22;36955;47.416;7.716;2022-07-10T04:27:34;14.70;99.90
50947;DHT22;36955;47.416;7.716;2022-07-10T04:30:01;14.70;99.90
50947;DHT22;36955;47.416;7.716;2022-07-10T04:32:27;14.70;99.90
50947;DHT22;36955;47.416;7.716;2022-07-10T04:34:54;14.70;99.90
50947;DHT22;36955;47.416;7.716;2022-07-10T04:37:20;14.70;99.90
50947;DHT22;36955;47.416;7.716;2022-07-10T04:39:46;14.80;99.90
50947;DHT22;36955;47.416;7.716;2022-07-10T04:42:12;14.70;99.90
50947;DHT22;36955;47.416;7.716;2022-07-10T04:44:38;14.80;99.90
50947;DHT22;36955;47.416;7.716;2022-07-10T04:47:05;14.80;99.90
50947;DHT22;36955;47.416;7.716;2022-07-10T04:49:32;14.80;99.90
50947;DHT22;36955;47.416;7.716;2022-07-10T04:51:58;14.80;99.90
50947;DHT22;36955;47.416;7.716;2022-07-10T04:54:25;14.80;99.90
50947;DHT22;36955;47.416;7.716;2022-07-10T04:56:51;14.80;99.90
50947;DHT22;36955;47.416;7.716;2022-07-10T04:59:17;14.80;99.90
50947;DHT22;36955;47.416;7.716;2022-07-10T05:01:43;14.80;99.90
50947;DHT22;36955;47.416;7.716;2022-07-10T05:04:10;14.90;99.90
50947;DHT22;36955;47.416;7.716;2022-07-10T05:06:36;14.90;99.90
50947;DHT22;36955;47.416;7.716;2022-07-10T05:09:03;14.90;99.90
50947;DHT22;36955;47.416;7.716;2022-07-10T05:11:29;15.00;99.90
50947;DHT22;36955;47.416;7.716;2022-07-10T05:13:55;14.90;99.90
50947;DHT22;36955;47.416;7.716;2022-07-10T05:16:21;15.00;99.90
50947;DHT22;36955;47.416;7.716;2022-07-10T05:18:47;15.00;99.90
50947;DHT22;36955;47.416;7.716;2022-07-10T05:21:13;15.10;99.90
50947;DHT22;36955;47.416;7.716;2022-07-10T05:23:39;15.20;99.90
50947;DHT22;36955;47.416;7.716;2022-07-10T05:26:06;15.20;99.90
50947;DHT22;36955;47.416;7.716;2022-07-10T05:28:32;15.30;99.90
50947;DHT22;36955;47.416;7.716;2022-07-10T05:30:58;15.30;99.90
50947;DHT22;36955;47.416;7.716;2022-07-10T05:33:25;15.40;99.90
50947;DHT22;36955;47.416;7.716;2022-07-10T05:35:51;15.40;99.90
50947;DHT22;36955;47.416;7.716;2022-07-10T05:38:17;15.40;99.90
50947;DHT22;36955;47.416;7.716;2022-07-10T05:40:43;15.30;99.90
50947;DHT22;36955;47.416;7.716;2022-07-10T05:43:09;15.20;99.90
50947;DHT22;36955;47.416;7.716;2022-07-10T05:45:35;15.20;99.90
50947;DHT22;36955;47.416;7.716;2022-07-10T05:48:02;15.20;99.90
50947;DHT22;36955;47.416;7.716;2022-07-10T05:50:28;15.30;99.90
50947;DHT22;36955;47.416;7.716;2022-07-10T05:52:54;15.30;99.90
50947;DHT22;36955;47.416;7.716;2022-07-10T05:55:20;15.30;99.90
50947;DHT22;36955;47.416;7.716;2022-07-10T05:57:46;15.30;99.90
50947;DHT22;36955;47.416;7.716;2022-07-10T06:00:12;15.30;99.90
50947;DHT22;36955;47.416;7.716;2022-07-10T06:02:38;15.30;99.90
50947;DHT22;36955;47.416;7.716;2022-07-10T06:05:05;15.30;99.90
50947;DHT22;36955;47.416;7.716;2022-07-10T06:07:31;15.40;99.90
50947;DHT22;36955;47.416;7.716;2022-07-10T06:09:57;15.50;99.90
50947;DHT22;36955;47.416;7.716;2022-07-10T06:12:24;15.60;99.90
50947;DHT22;36955;47.416;7.716;2022-07-10T06:14:50;15.70;99.90
50947;DHT22;36955;47.416;7.716;2022-07-10T06:17:16;15.80;99.90
50947;DHT22;36955;47.416;7.716;2022-07-10T06:19:42;15.80;99.90
50947;DHT22;36955;47.416;7.716;2022-07-10T06:22:08;15.90;99.90
50947;DHT22;36955;47.416;7.716;2022-07-10T06:24:34;15.90;99.90
50947;DHT22;36955;47.416;7.716;2022-07-10T06:27:00;15.90;99.90
50947;DHT22;36955;47.416;7.716;2022-07-10T06:29:26;15.90;99.90
50947;DHT22;36955;47.416;7.716;2022-07-10T06:31:52;15.90;99.90
50947;DHT22;36955;47.416;7.716;2022-07-10T06:34:18;15.90;99.90
50947;DHT22;36955;47.416;7.716;2022-07-10T06:36:44;15.90;99.90
50947;DHT22;36955;47.416;7.716;2022-07-10T06:39:10;15.90;99.90
50947;DHT22;36955;47.416;7.716;2022-07-10T06:41:37;16.00;99.90
50947;DHT22;36955;47.416;7.716;2022-07-10T06:44:03;16.00;99.90
50947;DHT22;36955;47.416;7.716;2022-07-10T06:46:29;16.00;99.90
50947;DHT22;36955;47.416;7.716;2022-07-10T06:48:55;16.00;99.90
50947;DHT22;36955;47.416;7.716;2022-07-10T06:51:21;16.00;99.90
50947;DHT22;36955;47.416;7.716;2022-07-10T06:53:48;16.10;99.90
50947;DHT22;36955;47.416;7.716;2022-07-10T06:56:14;16.10;99.90
50947;DHT22;36955;47.416;7.716;2022-07-10T06:58:40;16.30;99.90
50947;DHT22;36955;47.416;7.716;2022-07-10T07:01:06;16.40;99.90
50947;DHT22;36955;47.416;7.716;2022-07-10T07:03:32;16.60;99.90
50947;DHT22;36955;47.416;7.716;2022-07-10T07:05:58;16.60;99.90
50947;DHT22;36955;47.416;7.716;2022-07-10T07:08:24;16.70;99.90
50947;DHT22;36955;47.416;7.716;2022-07-10T07:10:50;16.70;99.90
50947;DHT22;36955;47.416;7.716;2022-07-10T07:13:16;16.80;99.90
50947;DHT22;36955;47.416;7.716;2022-07-10T07:15:42;16.70;99.90
50947;DHT22;36955;47.416;7.716;2022-07-10T07:18:08;16.70;99.90
50947;DHT22;36955;47.416;7.716;2022-07-10T07:20:35;16.70;99.90
50947;DHT22;36955;47.416;7.716;2022-07-10T07:23:01;16.80;99.90
50947;DHT22;36955;47.416;7.716;2022-07-10T07:25:27;16.80;99.90
50947;DHT22;36955;47.416;7.716;2022-07-10T07:27:53;16.90;99.90
50947;DHT22;36955;47.416;7.716;2022-07-10T07:30:20;17.00;99.90
50947;DHT22;36955;47.416;7.716;2022-07-10T07:32:46;17.10;99.90
50947;DHT22;36955;47.416;7.716;2022-07-10T07:35:14;17.30;99.90
50947;DHT22;36955;47.416;7.716;2022-07-10T07:37:48;17.50;99.90
50947;DHT22;36955;47.416;7.716;2022-07-10T07:40:17;17.40;99.90
50947;DHT22;36955;47.416;7.716;2022-07-10T07:42:43;17.30;99.90
50947;DHT22;36955;47.416;7.716;2022-07-10T07:45:09;17.30;99.90
50947;DHT22;36955;47.416;7.716;2022-07-10T07:47:45;17.20;99.90
50947;DHT22;36955;47.416;7.716;2022-07-10T07:50:34;17.20;99.90
50947;DHT22;36955;47.416;7.716;2022-07-10T07:53:00;17.20;99.90
50947;DHT22;36955;47.416;7.716;2022-07-10T07:55:27;17.30;99.90
50947;DHT22;36955;47.416;7.716;2022-07-10T07:57:55;17.40;99.90
50947;DHT22;36955;47.416;7.716;2022-07-10T08:00:23;17.30;99.90
50947;DHT22;36955;47.416;7.716;2022-07-10T08:02:50;17.40;99.90
50947;DHT22;36955;47.416;7.716;2022-07-10T08:05:17;17.50;99.90
50947;DHT22;36955;47.416;7.716;2022-07-10T08:07:48;17.60;99.90
50947;DHT22;36955;47.416;7.716;2022-07-10T08:10:16;17.70;99.90
50947;DHT22;36955;47.416;7.716;2022-07-10T08:12:44;17.80;99.90
50947;DHT22;36955;47.416;7.716;2022-07-10T08:15:12;17.90;99.90
50947;DHT22;36955;47.416;7.716;2022-07-10T08:17:38;17.90;99.90
50947;DHT22;36955;47.416;7.716;2022-07-10T08:20:07;17.90;99.90
50947;DHT22;36955;47.416;7.716;2022-07-10T08:22:34;17.80;99.90
50947;DHT22;36955;47.416;7.716;2022-07-10T08:25:00;17.80;99.90
50947;DHT22;36955;47.416;7.716;2022-07-10T08:27:26;17.70;99.90
50947;DHT22;36955;47.416;7.716;2022-07-10T08:29:52;17.80;99.90
50947;DHT22;36955;47.416;7.716;2022-07-10T08:32:18;17.80;99.90
50947;DHT22;36955;47.416;7.716;2022-07-10T08:34:44;17.80;99.90
50947;DHT22;36955;47.416;7.716;2022-07-10T08:37:10;17.70;99.90
50947;DHT22;36955;47.416;7.716;2022-07-10T08:39:37;17.60;99.90
50947;DHT22;36955;47.416;7.716;2022-07-10T08:42:05;17.50;99.90
50947;DHT22;36955;47.416;7.716;2022-07-10T08:44:33;17.40;99.90
50947;DHT22;36955;47.416;7.716;2022-07-10T08:46:59;17.50;99.90
50947;DHT22;36955;47.416;7.716;2022-07-10T08:49:28;17.50;99.90
50947;DHT22;36955;47.416;7.716;2022-07-10T08:52:02;17.60;99.90
50947;DHT22;36955;47.416;7.716;2022-07-10T08:54:29;17.80;99.90
50947;DHT22;36955;47.416;7.716;2022-07-10T08:57:02;17.90;99.90
50947;DHT22;36955;47.416;7.716;2022-07-10T08:59:29;18.00;99.90
50947;DHT22;36955;47.416;7.716;2022-07-10T09:01:56;18.10;99.90
50947;DHT22;36955;47.416;7.716;2022-07-10T09:04:24;18.00;99.90
50947;DHT22;36955;47.416;7.716;2022-07-10T09:06:52;18.10;99.90
50947;DHT22;36955;47.416;7.716;2022-07-10T09:09:19;18.10;99.90
50947;DHT22;36955;47.416;7.716;2022-07-10T09:11:45;18.00;99.90
50947;DHT22;36955;47.416;7.716;2022-07-10T09:14:14;17.90;99.90
50947;DHT22;36955;47.416;7.716;2022-07-10T09:16:45;17.90;99.90
50947;DHT22;36955;47.416;7.716;2022-07-10T09:19:26;18.00;99.90
50947;DHT22;36955;47.416;7.716;2022-07-10T09:22:02;18.10;99.90
50947;DHT22;36955;47.416;7.716;2022-07-10T09:24:36;18.10;99.90
50947;DHT22;36955;47.416;7.716;2022-07-10T09:27:03;18.20;99.90
50947;DHT22;36955;47.416;7.716;2022-07-10T09:29:33;18.30;99.90
50947;DHT22;36955;47.416;7.716;2022-07-10T09:32:10;18.30;99.90
50947;DHT22;36955;47.416;7.716;2022-07-10T09:34:49;18.30;99.90
50947;DHT22;36955;47.416;7.716;2022-07-10T09:40:05;18.50;99.90
50947;DHT22;36955;47.416;7.716;2022-07-10T09:42:39;18.60;99.90
50947;DHT22;36955;47.416;7.716;2022-07-10T09:47:56;18.80;99.90
50947;DHT22;36955;47.416;7.716;2022-07-10T09:50:32;18.90;99.90
50947;DHT22;36955;47.416;7.716;2022-07-10T09:52:59;19.00;99.90
50947;DHT22;36955;47.416;7.716;2022-07-10T09:55:34;19.00;99.90
50947;DHT22;36955;47.416;7.716;2022-07-10T09:58:02;19.00;99.90
50947;DHT22;36955;47.416;7.716;2022-07-10T10:00:33;19.10;99.90
50947;DHT22;36955;47.416;7.716;2022-07-10T10:03:03;19.10;99.90
50947;DHT22;36955;47.416;7.716;2022-07-10T10:08:16;19.10;99.90
50947;DHT22;36955;47.416;7.716;2022-07-10T10:10:47;19.20;99.90
50947;DHT22;36955;47.416;7.716;2022-07-10T10:13:19;19.20;99.90
50947;DHT22;36955;47.416;7.716;2022-07-10T10:15:47;19.20;99.90
50947;DHT22;36955;47.416;7.716;2022-07-10T10:18:18;19.30;99.90
50947;DHT22;36955;47.416;7.716;2022-07-10T10:20:46;19.30;99.90
50947;DHT22;36955;47.416;7.716;2022-07-10T10:23:14;19.40;99.90
50947;DHT22;36955;47.416;7.716;2022-07-10T10:25:40;19.40;99.90
50947;DHT22;36955;47.416;7.716;2022-07-10T10:28:08;19.50;99.90
50947;DHT22;36955;47.416;7.716;2022-07-10T10:30:39;19.50;99.90
50947;DHT22;36955;47.416;7.716;2022-07-10T10:36:01;19.60;99.90
50947;DHT22;36955;47.416;7.716;2022-07-10T10:41:45;19.70;99.90
50947;DHT22;36955;47.416;7.716;2022-07-10T10:49:17;19.90;99.90
50947;DHT22;36955;47.416;7.716;2022-07-10T10:52:09;20.00;99.90
50947;DHT22;36955;47.416;7.716;2022-07-10T10:59:59;20.00;99.90
50947;DHT22;36955;47.416;7.716;2022-07-10T11:02:31;20.00;99.90
50947;DHT22;36955;47.416;7.716;2022-07-10T11:07:57;19.90;99.90
50947;DHT22;36955;47.416;7.716;2022-07-10T11:15:34;20.10;99.90
50947;DHT22;36955;47.416;7.716;2022-07-10T11:18:04;20.20;99.90
50947;DHT22;36955;47.416;7.716;2022-07-10T11:20:33;20.10;99.90
50947;DHT22;36955;47.416;7.716;2022-07-10T11:26:02;20.30;99.90
50947;DHT22;36955;47.416;7.716;2022-07-10T11:31:07;20.10;99.90
50947;DHT22;36955;47.416;7.716;2022-07-10T11:33:45;20.10;99.90
50947;DHT22;36955;47.416;7.716;2022-07-10T11:36:21;20.20;99.90
50947;DHT22;36955;47.416;7.716;2022-07-10T11:38:48;20.20;99.90
50947;DHT22;36955;47.416;7.716;2022-07-10T11:41:21;20.30;99.90
50947;DHT22;36955;47.416;7.716;2022-07-10T11:46:14;20.50;99.90
50947;DHT22;36955;47.416;7.716;2022-07-10T11:48:40;20.60;99.90
50947;DHT22;36955;47.416;7.716;2022-07-10T11:51:27;20.60;99.90
50947;DHT22;36955;47.416;7.716;2022-07-10T11:54:05;20.60;99.90
50947;DHT22;36955;47.416;7.716;2022-07-10T11:56:35;20.70;99.90
50947;DHT22;36955;47.416;7.716;2022-07-10T11:59:11;20.80;99.90
50947;DHT22;36955;47.416;7.716;2022-07-10T12:01:46;20.80;99.90
50947;DHT22;36955;47.416;7.716;2022-07-10T12:04:18;20.70;99.90
50947;DHT22;36955;47.416;7.716;2022-07-10T12:06:46;20.80;99.90
50947;DHT22;36955;47.416;7.716;2022-07-10T12:09:14;20.90;99.90
50947;DHT22;36955;47.416;7.716;2022-07-10T12:11:41;20.90;99.90
50947;DHT22;36955;47.416;7.716;2022-07-10T12:16:35;21.00;99.90
50947;DHT22;36955;47.416;7.716;2022-07-10T12:19:02;21.10;99.90
50947;DHT22;36955;47.416;7.716;2022-07-10T12:21:29;21.20;99.90
50947;DHT22;36955;47.416;7.716;2022-07-10T12:23:55;21.30;99.90
50947;DHT22;36955;47.416;7.716;2022-07-10T12:26:21;21.40;99.90
50947;DHT22;36955;47.416;7.716;2022-07-10T12:28:55;21.50;99.90
50947;DHT22;36955;47.416;7.716;2022-07-10T12:31:26;21.60;99.90
50947;DHT22;36955;47.416;7.716;2022-07-10T12:34:03;21.70;99.90
50947;DHT22;36955;47.416;7.716;2022-07-10T12:36:49;21.70;99.90
50947;DHT22;36955;47.416;7.716;2022-07-10T12:39:17;21.70;99.90
50947;DHT22;36955;47.416;7.716;2022-07-10T12:44:40;21.70;99.90
50947;DHT22;36955;47.416;7.716;2022-07-10T12:47:11;21.60;99.90
50947;DHT22;36955;47.416;7.716;2022-07-10T12:50:01;21.70;99.90
50947;DHT22;36955;47.416;7.716;2022-07-10T12:52:30;21.70;99.90
50947;DHT22;36955;47.416;7.716;2022-07-10T12:55:12;21.80;99.90
50947;DHT22;36955;47.416;7.716;2022-07-10T12:57:53;22.00;99.90
50947;DHT22;36955;47.416;7.716;2022-07-10T13:00:30;22.10;99.90
50947;DHT22;36955;47.416;7.716;2022-07-10T13:02:58;22.00;99.90
50947;DHT22;36955;47.416;7.716;2022-07-10T13:05:39;22.10;99.90
50947;DHT22;36955;47.416;7.716;2022-07-10T13:08:25;22.10;99.90
50947;DHT22;36955;47.416;7.716;2022-07-10T13:10:55;22.20;99.90
50947;DHT22;36955;47.416;7.716;2022-07-10T13:13:22;22.30;99.90
50947;DHT22;36955;47.416;7.716;2022-07-10T13:15:48;22.40;99.90
50947;DHT22;36955;47.416;7.716;2022-07-10T13:18:19;22.70;99.90
50947;DHT22;36955;47.416;7.716;2022-07-10T13:20:45;22.80;99.90
50947;DHT22;36955;47.416;7.716;2022-07-10T13:23:11;22.70;99.90
50947;DHT22;36955;47.416;7.716;2022-07-10T13:25:38;22.80;99.90
50947;DHT22;36955;47.416;7.716;2022-07-10T13:28:08;22.90;99.90
50947;DHT22;36955;47.416;7.716;2022-07-10T13:30:35;23.00;99.90
50947;DHT22;36955;47.416;7.716;2022-07-10T13:33:01;23.20;99.90
50947;DHT22;36955;47.416;7.716;2022-07-10T13:35:29;23.40;99.90
50947;DHT22;36955;47.416;7.716;2022-07-10T13:37:58;23.70;99.90
50947;DHT22;36955;47.416;7.716;2022-07-10T13:40:24;23.80;99.90
50947;DHT22;36955;47.416;7.716;2022-07-10T13:42:50;23.80;99.90
50947;DHT22;36955;47.416;7.716;2022-07-10T13:45:17;24.10;99.90
50947;DHT22;36955;47.416;7.716;2022-07-10T13:47:43;24.20;99.90
50947;DHT22;36955;47.416;7.716;2022-07-10T13:50:09;24.30;99.90
50947;DHT22;36955;47.416;7.716;2022-07-10T13:52:35;24.40;99.90
50947;DHT22;36955;47.416;7.716;2022-07-10T13:55:01;24.50;99.90
50947;DHT22;36955;47.416;7.716;2022-07-10T13:57:27;24.50;99.90
50947;DHT22;36955;47.416;7.716;2022-07-10T13:59:53;24.60;99.90
50947;DHT22;36955;47.416;7.716;2022-07-10T14:02:19;24.70;99.90
50947;DHT22;36955;47.416;7.716;2022-07-10T14:04:45;24.80;99.90
50947;DHT22;36955;47.416;7.716;2022-07-10T14:07:11;24.90;99.90
50947;DHT22;36955;47.416;7.716;2022-07-10T14:09:37;25.20;99.90
50947;DHT22;36955;47.416;7.716;2022-07-10T14:12:04;25.30;99.90
50947;DHT22;36955;47.416;7.716;2022-07-10T14:14:30;25.40;98.50
50947;DHT22;36955;47.416;7.716;2022-07-10T14:16:56;25.30;98.30
50947;DHT22;36955;47.416;7.716;2022-07-10T14:19:22;25.20;99.20
50947;DHT22;36955;47.416;7.716;2022-07-10T14:21:48;25.10;97.40
50947;DHT22;36955;47.416;7.716;2022-07-10T14:24:14;24.90;98.60
50947;DHT22;36955;47.416;7.716;2022-07-10T14:26:40;24.90;99.30
50947;DHT22;36955;47.416;7.716;2022-07-10T14:29:06;25.00;99.30
50947;DHT22;36955;47.416;7.716;2022-07-10T14:31:33;25.00;99.90
50947;DHT22;36955;47.416;7.716;2022-07-10T14:33:59;25.10;99.50
50947;DHT22;36955;47.416;7.716;2022-07-10T14:36:25;25.30;97.40
50947;DHT22;36955;47.416;7.716;2022-07-10T14:38:55;25.40;99.10
50947;DHT22;36955;47.416;7.716;2022-07-10T14:41:22;25.50;97.10
50947;DHT22;36955;47.416;7.716;2022-07-10T14:43:49;25.60;98.30
50947;DHT22;36955;47.416;7.716;2022-07-10T14:46:15;25.70;98.60
50947;DHT22;36955;47.416;7.716;2022-07-10T14:48:41;25.90;97.00
50947;DHT22;36955;47.416;7.716;2022-07-10T14:51:07;26.00;97.10
50947;DHT22;36955;47.416;7.716;2022-07-10T14:53:34;26.00;96.50
50947;DHT22;36955;47.416;7.716;2022-07-10T14:56:00;25.90;96.30
50947;DHT22;36955;47.416;7.716;2022-07-10T14:58:26;25.90;96.90
50947;DHT22;36955;47.416;7.716;2022-07-10T15:00:52;26.00;97.30
50947;DHT22;36955;47.416;7.716;2022-07-10T15:03:18;26.10;96.90
50947;DHT22;36955;47.416;7.716;2022-07-10T15:05:44;26.40;96.10
50947;DHT22;36955;47.416;7.716;2022-07-10T15:08:10;26.40;97.30
50947;DHT22;36955;47.416;7.716;2022-07-10T15:10:36;26.30;96.90
50947;DHT22;36955;47.416;7.716;2022-07-10T15:13:02;26.20;97.30
50947;DHT22;36955;47.416;7.716;2022-07-10T15:15:28;26.20;97.50
50947;DHT22;36955;47.416;7.716;2022-07-10T15:17:54;26.30;96.20
50947;DHT22;36955;47.416;7.716;2022-07-10T15:20:21;26.10;96.90
50947;DHT22;36955;47.416;7.716;2022-07-10T15:22:47;26.00;99.40
50947;DHT22;36955;47.416;7.716;2022-07-10T15:25:13;26.10;97.80
50947;DHT22;36955;47.416;7.716;2022-07-10T15:27:39;26.30;97.50
50947;DHT22;36955;47.416;7.716;2022-07-10T15:30:05;26.40;97.10
50947;DHT22;36955;47.416;7.716;2022-07-10T15:32:33;26.50;98.00
50947;DHT22;36955;47.416;7.716;2022-07-10T15:34:59;26.60;98.80
50947;DHT22;36955;47.416;7.716;2022-07-10T15:37:25;26.70;98.50
50947;DHT22;36955;47.416;7.716;2022-07-10T15:39:51;26.50;97.90
50947;DHT22;36955;47.416;7.716;2022-07-10T15:42:17;26.30;97.80
50947;DHT22;36955;47.416;7.716;2022-07-10T15:44:43;26.20;99.80
50947;DHT22;36955;47.416;7.716;2022-07-10T15:47:09;26.40;98.90
50947;DHT22;36955;47.416;7.716;2022-07-10T15:49:35;26.50;99.60
50947;DHT22;36955;47.416;7.716;2022-07-10T15:52:02;26.70;99.30
50947;DHT22;36955;47.416;7.716;2022-07-10T15:54:28;26.70;99.50
50947;DHT22;36955;47.416;7.716;2022-07-10T15:56:55;26.70;98.10
50947;DHT22;36955;47.416;7.716;2022-07-10T15:59:21;26.50;98.40
50947;DHT22;36955;47.416;7.716;2022-07-10T16:01:51;26.10;98.50
50947;DHT22;36955;47.416;7.716;2022-07-10T16:04:17;25.80;98.30
50947;DHT22;36955;47.416;7.716;2022-07-10T16:06:43;25.60;98.70
50947;DHT22;36955;47.416;7.716;2022-07-10T16:09:09;25.60;99.50
50947;DHT22;36955;47.416;7.716;2022-07-10T16:11:35;25.60;99.20
50947;DHT22;36955;47.416;7.716;2022-07-10T16:14:02;25.60;99.00
50947;DHT22;36955;47.416;7.716;2022-07-10T16:16:28;25.70;98.60
50947;DHT22;36955;47.416;7.716;2022-07-10T16:18:54;25.70;99.30